Time;durP1;ratioP1;P1;durP2;ratioP2;P2;SDS_P1;SDS_P2;PMS_P1;PMS_P2;Temp;Humidity;BMP_temperature;BMP_pressure;BME280_temperature;BME280_humidity;BME280_pressure;Samples;Min_cycle;Max_cycle;Signal;HPM_P1;HPM_P2
2021/03/17 00:02:44;;;;;;;11.57;7.40;;;2.60;99.90;;;;;;5118360;28;20448;-67
2021/03/17 00:05:32;;;;;;;11.80;7.53;;;2.80;99.90;;;;;;5118427;28;20443;-67
2021/03/17 00:08:20;;;;;;;7.30;5.67;;;2.90;99.90;;;;;;5117829;28;20995;-67
2021/03/17 00:11:06;;;;;;;10.60;7.00;;;2.90;99.90;;;;;;5118250;28;20592;-69
2021/03/17 00:13:53;;;;;;;11.83;6.57;;;2.90;99.90;;;;;;5111540;28;20455;-67
2021/03/17 00:16:40;;;;;;;7.27;5.57;;;2.90;99.90;;;;;;5113298;28;20491;-67
2021/03/17 00:19:27;;;;;;;8.33;5.83;;;2.90;99.90;;;;;;5117861;28;20519;-68
2021/03/17 00:22:13;;;;;;;8.20;5.20;;;2.80;99.90;;;;;;5118577;28;20942;-68
2021/03/17 00:24:59;;;;;;;7.57;5.50;;;2.80;99.90;;;;;;5119985;28;20561;-66
2021/03/17 00:27:45;;;;;;;8.07;5.90;;;2.80;99.90;;;;;;5118962;28;20431;-67
2021/03/17 00:30:32;;;;;;;7.67;5.27;;;2.60;99.90;;;;;;5118045;28;20447;-66
2021/03/17 00:33:19;;;;;;;7.20;5.40;;;2.60;99.90;;;;;;5102627;28;20450;-67
2021/03/17 00:36:06;;;;;;;8.43;6.27;;;2.50;99.90;;;;;;5102099;28;20454;-67
2021/03/17 00:38:52;;;;;;;7.90;6.10;;;2.50;99.90;;;;;;5120933;28;20439;-68
2021/03/17 00:41:38;;;;;;;9.33;6.70;;;2.40;99.90;;;;;;5117889;28;20461;-66
2021/03/17 00:44:38;;;;;;;8.50;4.93;;;2.40;99.90;;;;;;5100117;28;20600;-68
2021/03/17 00:47:24;;;;;;;8.30;5.10;;;2.30;99.90;;;;;;5116919;28;20467;-67
2021/03/17 00:49:53;;;;;;;6.47;4.80;;;2.30;99.90;;;;;;5117803;28;20508;-70
2021/03/17 00:52:23;;;;;;;6.60;5.20;;;2.30;99.90;;;;;;5118006;28;20530;-66
2021/03/17 00:55:11;;;;;;;9.70;6.73;;;2.20;99.90;;;;;;5117478;28;20471;-68
2021/03/17 00:58:05;;;;;;;9.63;5.73;;;2.10;99.90;;;;;;5085978;28;20435;-67
2021/03/17 01:00:33;;;;;;;11.07;6.30;;;2.00;99.90;;;;;;5115991;28;20456;-67
2021/03/17 01:03:02;;;;;;;9.60;6.37;;;1.90;99.90;;;;;;5118253;28;20438;-68
2021/03/17 01:05:31;;;;;;;12.37;5.73;;;1.80;99.90;;;;;;5118371;28;20439;-69
2021/03/17 01:07:58;;;;;;;7.63;5.20;;;1.70;99.90;;;;;;5117984;28;20432;-69
2021/03/17 01:10:35;;;;;;;11.37;6.90;;;1.60;99.90;;;;;;5118454;28;20467;-66
2021/03/17 01:13:03;;;;;;;7.10;5.53;;;1.60;99.90;;;;;;5100650;28;20420;-68
2021/03/17 01:15:56;;;;;;;12.80;5.30;;;1.50;99.90;;;;;;5118004;28;20894;-67
2021/03/17 01:18:25;;;;;;;11.13;5.80;;;1.40;99.90;;;;;;5119681;28;20919;-66
2021/03/17 01:21:21;;;;;;;8.97;4.77;;;1.30;99.90;;;;;;5120161;28;20506;-69
2021/03/17 01:23:49;;;;;;;9.60;4.70;;;1.30;99.90;;;;;;5118805;28;20511;-67
2021/03/17 01:26:16;;;;;;;6.77;4.10;;;1.40;99.90;;;;;;5100108;28;20479;-67
2021/03/17 01:28:45;;;;;;;7.67;4.63;;;1.50;99.90;;;;;;5103818;28;20835;-70
2021/03/17 01:31:12;;;;;;;7.50;4.77;;;1.50;99.90;;;;;;5119540;28;20467;-68
2021/03/17 01:33:40;;;;;;;9.57;5.20;;;1.50;99.90;;;;;;5101004;28;20501;-68
2021/03/17 01:36:09;;;;;;;6.27;4.57;;;1.40;99.90;;;;;;5121380;28;20432;-68
2021/03/17 01:38:37;;;;;;;8.40;4.80;;;1.40;99.90;;;;;;5101667;28;20439;-67
2021/03/17 01:41:04;;;;;;;5.43;4.80;;;1.30;99.90;;;;;;5119039;28;20428;-67
2021/03/17 01:43:32;;;;;;;6.23;4.53;;;1.30;99.90;;;;;;5102799;28;20892;-68
2021/03/17 01:46:00;;;;;;;7.30;4.63;;;1.20;99.90;;;;;;5118997;28;20468;-67
2021/03/17 01:48:28;;;;;;;8.93;5.43;;;1.10;99.90;;;;;;5122046;28;20424;-67
2021/03/17 01:50:57;;;;;;;8.67;5.77;;;1.00;99.90;;;;;;5122862;28;20428;-67
2021/03/17 01:53:28;;;;;;;6.53;5.07;;;1.00;99.90;;;;;;5120870;28;21027;-70
2021/03/17 01:55:58;;;;;;;14.90;6.30;;;1.00;99.90;;;;;;5121414;28;20455;-68
2021/03/17 01:58:27;;;;;;;8.20;5.83;;;1.00;99.90;;;;;;5102178;28;20428;-68
2021/03/17 02:01:19;;;;;;;9.10;6.27;;;1.00;99.90;;;;;;5122535;28;20475;-67
2021/03/17 02:03:47;;;;;;;13.70;6.90;;;1.10;99.90;;;;;;5103976;28;20850;-68
2021/03/17 02:06:14;;;;;;;12.47;7.70;;;1.10;99.90;;;;;;5120691;28;20886;-68
2021/03/17 02:08:44;;;;;;;9.63;6.50;;;1.00;99.90;;;;;;5125768;28;20455;-66
2021/03/17 02:11:14;;;;;;;11.90;7.53;;;0.90;99.90;;;;;;5127854;28;20435;-67
2021/03/17 02:13:58;;;;;;;13.80;7.40;;;0.90;99.90;;;;;;5107829;28;21025;-68
2021/03/17 02:16:28;;;;;;;14.00;6.70;;;0.90;99.90;;;;;;5120506;28;20582;-68
2021/03/17 02:19:15;;;;;;;10.90;6.30;;;0.90;99.90;;;;;;5118651;28;20431;-67
2021/03/17 02:22:09;;;;;;;11.07;7.00;;;0.90;99.90;;;;;;5116754;28;20440;-66
2021/03/17 02:24:44;;;;;;;9.60;7.00;;;0.90;99.90;;;;;;5111191;28;20451;-68
2021/03/17 02:27:43;;;;;;;15.17;8.60;;;0.90;99.90;;;;;;5117931;28;20502;-67
2021/03/17 02:30:36;;;;;;;14.13;7.53;;;0.90;99.90;;;;;;5116987;28;20438;-67
2021/03/17 02:33:36;;;;;;;10.73;7.13;;;0.80;99.90;;;;;;5116938;28;20450;-67
2021/03/17 02:36:10;;;;;;;12.53;8.30;;;0.80;99.90;;;;;;5113068;28;20451;-67
2021/03/17 02:38:40;;;;;;;10.20;7.40;;;0.80;99.90;;;;;;5098306;28;20431;-68
2021/03/17 02:41:08;;;;;;;14.57;8.90;;;0.90;99.90;;;;;;5116996;28;20482;-68
2021/03/17 02:44:05;;;;;;;16.10;8.13;;;0.90;99.90;;;;;;5116793;28;20523;-67
2021/03/17 02:46:33;;;;;;;12.90;9.20;;;0.90;99.90;;;;;;5116271;28;20950;-68
2021/03/17 02:49:03;;;;;;;16.03;8.87;;;0.90;99.90;;;;;;5117155;28;20432;-70
2021/03/17 02:51:38;;;;;;;14.87;8.17;;;0.80;99.90;;;;;;5117297;28;20439;-67
2021/03/17 02:54:09;;;;;;;13.70;9.07;;;0.70;99.90;;;;;;5118496;28;20492;-68
2021/03/17 02:56:42;;;;;;;15.70;9.47;;;0.70;99.90;;;;;;5120778;28;20464;-68
2021/03/17 02:59:11;;;;;;;14.23;8.40;;;0.70;99.90;;;;;;5103360;28;20435;-68
2021/03/17 03:01:41;;;;;;;16.73;11.10;;;0.60;99.90;;;;;;5120244;28;20468;-67
2021/03/17 03:04:11;;;;;;;18.40;9.07;;;0.60;99.90;;;;;;5121911;28;20933;-66
2021/03/17 03:06:42;;;;;;;18.03;10.40;;;0.60;99.90;;;;;;5122496;28;20436;-66
2021/03/17 03:09:11;;;;;;;23.40;11.47;;;0.60;99.90;;;;;;5128352;28;20549;-66
2021/03/17 03:11:39;;;;;;;19.63;12.17;;;0.50;99.90;;;;;;5136333;28;20427;-67
2021/03/17 03:14:07;;;;;;;12.40;9.27;;;0.40;99.90;;;;;;5121395;28;20922;-68
2021/03/17 03:16:36;;;;;;;17.03;10.00;;;0.30;99.90;;;;;;5119139;28;20470;-67
2021/03/17 03:19:07;;;;;;;21.80;11.57;;;0.40;99.90;;;;;;5101790;28;20606;-67
2021/03/17 03:21:36;;;;;;;19.40;11.03;;;0.40;99.90;;;;;;5120344;28;20431;-68
2021/03/17 03:24:05;;;;;;;14.37;9.87;;;0.40;99.90;;;;;;5120765;28;20442;-67
2021/03/17 03:26:35;;;;;;;15.60;10.13;;;0.20;99.90;;;;;;5100965;28;20457;-69
2021/03/17 03:29:04;;;;;;;15.63;9.40;;;0.20;99.90;;;;;;5119775;28;20432;-67
2021/03/17 03:31:32;;;;;;;16.30;10.27;;;0.30;99.90;;;;;;5118687;28;20956;-69
2021/03/17 03:34:01;;;;;;;20.07;10.97;;;0.50;99.90;;;;;;5122760;28;20428;-67
2021/03/17 03:36:31;;;;;;;21.73;10.20;;;0.60;99.90;;;;;;5101708;28;20462;-69
2021/03/17 03:38:59;;;;;;;17.17;11.47;;;0.70;99.90;;;;;;5119952;28;20434;-68
2021/03/17 03:41:28;;;;;;;19.67;11.37;;;0.80;99.90;;;;;;5119481;28;20451;-68
2021/03/17 03:43:56;;;;;;;18.77;12.87;;;0.80;99.90;;;;;;5100420;28;20446;-67
2021/03/17 03:46:33;;;;;;;20.47;12.10;;;0.90;99.90;;;;;;5118296;28;20536;-68
2021/03/17 03:49:02;;;;;;;23.13;12.50;;;0.90;99.90;;;;;;5119686;28;20427;-68
2021/03/17 03:51:31;;;;;;;20.53;11.53;;;0.90;99.90;;;;;;5104619;28;20444;-67
2021/03/17 03:54:11;;;;;;;24.10;13.87;;;0.90;99.90;;;;;;5120191;28;20506;-68
2021/03/17 03:56:44;;;;;;;22.40;12.27;;;0.80;99.90;;;;;;5076648;28;20519;-69
2021/03/17 03:59:14;;;;;;;21.13;13.10;;;0.80;99.90;;;;;;5122427;28;20972;-67
2021/03/17 04:01:46;;;;;;;24.20;13.50;;;0.90;99.90;;;;;;5120994;28;20524;-67
2021/03/17 04:04:17;;;;;;;28.37;14.93;;;0.90;99.90;;;;;;5123225;28;20441;-66
2021/03/17 04:07:11;;;;;;;27.30;13.43;;;0.90;99.90;;;;;;5120415;28;20440;-67
2021/03/17 04:09:44;;;;;;;25.53;14.70;;;0.90;99.90;;;;;;5084012;28;20879;-67
2021/03/17 04:12:38;;;;;;;25.10;14.40;;;1.00;99.90;;;;;;5119277;28;20424;-67
2021/03/17 04:15:08;;;;;;;27.40;13.17;;;1.00;99.90;;;;;;5117817;28;20494;-67
2021/03/17 04:17:39;;;;;;;25.37;13.00;;;1.00;99.90;;;;;;5100569;28;20471;-67
2021/03/17 04:20:11;;;;;;;24.90;13.80;;;1.00;99.90;;;;;;5118775;28;20428;-68
2021/03/17 04:22:40;;;;;;;23.37;14.40;;;1.00;99.90;;;;;;5118497;28;20449;-67
2021/03/17 04:25:09;;;;;;;25.43;15.23;;;1.10;99.90;;;;;;5119241;28;20944;-67
2021/03/17 04:27:41;;;;;;;28.13;15.97;;;1.10;99.90;;;;;;5118551;28;20496;-67
2021/03/17 04:30:10;;;;;;;24.43;12.60;;;1.10;99.90;;;;;;5118587;28;20923;-67
2021/03/17 04:32:41;;;;;;;29.80;13.70;;;1.00;99.90;;;;;;5120238;28;20521;-69
2021/03/17 04:35:10;;;;;;;26.07;13.37;;;1.00;99.90;;;;;;5103374;28;20467;-67
2021/03/17 04:37:39;;;;;;;26.87;13.40;;;1.00;99.90;;;;;;5121883;28;20566;-67
2021/03/17 04:40:08;;;;;;;19.97;13.70;;;1.00;99.90;;;;;;5100420;28;20432;-67
2021/03/17 04:42:38;;;;;;;28.23;14.20;;;1.10;99.90;;;;;;5117519;28;20934;-66
2021/03/17 04:45:10;;;;;;;19.77;11.97;;;1.10;99.90;;;;;;5117576;28;20979;-67
2021/03/17 04:50:33;;;;;;;24.63;16.17;;;1.20;99.90;;;;;;5079194;28;20947;-67
2021/03/17 04:53:02;;;;;;;21.37;14.07;;;1.20;99.90;;;;;;5079438;28;20460;-68
2021/03/17 04:55:29;;;;;;;27.07;15.50;;;1.20;99.90;;;;;;5079138;28;20470;-67
2021/03/17 04:58:01;;;;;;;28.47;15.77;;;1.30;99.90;;;;;;5079813;28;20432;-67
2021/03/17 05:00:29;;;;;;;26.47;15.23;;;1.30;99.90;;;;;;5082161;28;20435;-67
2021/03/17 05:03:00;;;;;;;21.80;12.70;;;1.20;99.90;;;;;;5117623;28;20500;-67
2021/03/17 05:05:32;;;;;;;21.10;12.27;;;1.20;99.90;;;;;;5117806;28;20444;-68
2021/03/17 05:08:06;;;;;;;18.50;11.33;;;1.30;99.90;;;;;;5117982;28;20432;-70
2021/03/17 05:10:35;;;;;;;22.30;14.87;;;1.40;99.90;;;;;;5117527;28;20438;-67
2021/03/17 05:13:07;;;;;;;30.43;15.10;;;1.70;99.90;;;;;;5118601;28;20519;-71
2021/03/17 05:15:59;;;;;;;28.90;14.83;;;1.80;99.90;;;;;;5119013;28;20566;-69
2021/03/17 05:18:34;;;;;;;31.40;15.57;;;1.90;99.90;;;;;;5120364;28;20965;-67
2021/03/17 05:21:28;;;;;;;29.30;14.20;;;1.80;99.90;;;;;;5119940;28;20463;-67
2021/03/17 05:23:57;;;;;;;35.33;15.80;;;1.80;99.90;;;;;;5099567;28;20765;-67
2021/03/17 05:26:25;;;;;;;34.50;16.90;;;1.90;99.90;;;;;;5116405;28;20432;-67
2021/03/17 05:28:54;;;;;;;31.37;17.60;;;1.90;99.90;;;;;;5081145;28;20558;-70
2021/03/17 05:31:25;;;;;;;31.30;17.77;;;1.90;99.90;;;;;;5115321;28;20495;-67
2021/03/17 05:33:53;;;;;;;29.97;15.43;;;2.00;99.90;;;;;;5098490;28;20434;-67
2021/03/17 05:36:21;;;;;;;51.20;30.83;;;2.00;99.90;;;;;;5100224;28;20483;-67
2021/03/17 05:38:48;;;;;;;65.60;33.70;;;2.10;99.90;;;;;;5116375;28;20782;-67
2021/03/17 05:41:16;;;;;;;43.17;19.63;;;2.10;99.90;;;;;;5081261;28;20484;-68
2021/03/17 05:43:43;;;;;;;54.23;25.80;;;2.10;99.90;;;;;;5081447;28;20457;-67
2021/03/17 05:46:13;;;;;;;51.47;30.50;;;2.20;99.90;;;;;;5115792;28;20480;-67
2021/03/17 05:48:42;;;;;;;44.20;25.60;;;2.20;99.90;;;;;;5099789;28;20423;-68
2021/03/17 05:51:10;;;;;;;35.00;19.20;;;2.20;99.90;;;;;;5116583;28;20448;-67
2021/03/17 05:53:39;;;;;;;26.93;17.37;;;2.20;99.90;;;;;;5117192;28;20436;-67
2021/03/17 05:56:09;;;;;;;26.80;16.00;;;2.20;99.90;;;;;;5083962;28;20471;-67
2021/03/17 05:58:36;;;;;;;29.03;15.90;;;2.30;99.90;;;;;;5101202;28;20436;-67
2021/03/17 06:01:06;;;;;;;28.87;15.20;;;2.40;99.90;;;;;;5116416;28;20468;-69
2021/03/17 06:03:37;;;;;;;26.30;16.33;;;2.30;99.90;;;;;;5097565;28;20428;-68
2021/03/17 06:06:07;;;;;;;24.93;15.20;;;2.50;99.90;;;;;;5116511;28;20431;-68
2021/03/17 06:08:39;;;;;;;28.37;15.27;;;2.50;99.90;;;;;;5116732;28;20502;-68
2021/03/17 06:11:09;;;;;;;27.03;17.17;;;2.60;99.90;;;;;;5099785;28;20431;-67
2021/03/17 06:13:40;;;;;;;25.40;16.20;;;2.40;99.90;;;;;;5119503;28;21001;-67
2021/03/17 06:16:09;;;;;;;25.60;15.07;;;2.40;99.90;;;;;;5096394;28;20484;-68
2021/03/17 06:18:43;;;;;;;27.00;14.93;;;2.40;99.90;;;;;;5096258;28;20435;-67
2021/03/17 06:21:17;;;;;;;21.10;14.40;;;2.30;99.90;;;;;;5096212;28;20812;-67
2021/03/17 06:23:46;;;;;;;28.83;18.00;;;2.30;99.90;;;;;;5096152;28;20456;-67
2021/03/17 06:26:13;;;;;;;37.50;20.97;;;2.30;99.90;;;;;;5098184;28;20439;-67
2021/03/17 06:28:41;;;;;;;28.93;15.60;;;2.30;99.90;;;;;;5097587;28;20436;-68
2021/03/17 06:31:10;;;;;;;46.17;25.43;;;2.30;99.90;;;;;;5099964;28;20516;-68
2021/03/17 06:33:41;;;;;;;24.53;15.53;;;2.40;99.90;;;;;;5120065;28;20432;-67
2021/03/17 06:36:17;;;;;;;31.53;17.47;;;2.40;99.90;;;;;;5119174;28;20552;-68
2021/03/17 06:38:46;;;;;;;33.63;15.20;;;2.30;99.90;;;;;;5119778;28;20480;-66
2021/03/17 06:41:15;;;;;;;29.40;17.17;;;2.30;99.90;;;;;;5119913;28;20438;-68
2021/03/17 06:43:44;;;;;;;24.33;14.80;;;2.30;99.90;;;;;;5102704;28;20447;-69
2021/03/17 06:46:14;;;;;;;30.50;16.73;;;2.30;99.90;;;;;;5101919;28;20467;-68
2021/03/17 06:48:58;;;;;;;31.77;16.63;;;2.40;99.90;;;;;;5119126;28;20443;-71
2021/03/17 06:51:30;;;;;;;23.53;14.60;;;2.40;99.90;;;;;;5120523;28;20488;-68
2021/03/17 06:53:59;;;;;;;30.30;14.00;;;2.50;99.90;;;;;;5120150;28;20484;-68
2021/03/17 06:56:29;;;;;;;24.60;13.63;;;2.50;99.90;;;;;;5101367;28;20841;-71
2021/03/17 06:58:58;;;;;;;23.07;14.13;;;2.60;99.90;;;;;;5120940;28;20445;-68
2021/03/17 07:01:28;;;;;;;28.97;16.10;;;2.60;99.90;;;;;;5091252;28;20586;-68
2021/03/17 07:03:58;;;;;;;25.73;15.47;;;2.70;99.90;;;;;;5100117;28;20478;-68
2021/03/17 07:06:28;;;;;;;23.90;15.03;;;2.60;99.90;;;;;;5081086;28;20440;-67
2021/03/17 07:08:58;;;;;;;24.60;13.17;;;2.50;99.90;;;;;;5081042;28;20560;-67
2021/03/17 07:11:28;;;;;;;24.03;12.50;;;2.50;99.90;;;;;;5099907;28;20916;-68
2021/03/17 07:14:02;;;;;;;19.93;13.60;;;2.60;99.90;;;;;;5098848;28;20440;-70
2021/03/17 07:16:35;;;;;;;25.03;17.50;;;2.40;99.90;;;;;;5101131;28;20546;-68
2021/03/17 07:19:43;;;;;;;24.03;14.47;;;2.30;99.90;;;;;;5099548;28;20436;-66
2021/03/17 07:22:13;;;;;;;23.77;14.40;;;2.30;99.90;;;;;;5086191;28;20447;-68
2021/03/17 07:24:43;;;;;;;23.57;13.13;;;2.30;99.90;;;;;;5065346;28;20431;-67
2021/03/17 07:27:16;;;;;;;19.13;12.63;;;2.40;99.90;;;;;;5081621;28;20460;-69
2021/03/17 07:29:44;;;;;;;23.40;14.23;;;2.50;99.90;;;;;;5100110;28;20476;-67
2021/03/17 07:32:12;;;;;;;27.20;13.90;;;2.50;99.90;;;;;;5099647;28;20827;-67
2021/03/17 07:34:40;;;;;;;25.40;12.97;;;2.50;99.90;;;;;;5111898;28;20442;-67
2021/03/17 07:37:09;;;;;;;20.63;14.00;;;2.70;99.90;;;;;;5120945;28;20451;-67
2021/03/17 07:39:38;;;;;;;23.20;12.83;;;2.70;99.90;;;;;;5118785;28;20478;-67
2021/03/17 07:42:07;;;;;;;19.53;13.40;;;2.90;99.90;;;;;;5118948;28;20454;-68
2021/03/17 07:44:36;;;;;;;18.40;11.87;;;2.80;99.90;;;;;;5100939;28;20531;-71
2021/03/17 07:47:05;;;;;;;18.20;11.23;;;2.90;99.90;;;;;;5117945;28;20483;-66
2021/03/17 07:49:48;;;;;;;22.93;11.93;;;3.10;99.90;;;;;;5100413;28;20442;-69
2021/03/17 07:52:23;;;;;;;24.13;10.20;;;3.30;99.90;;;;;;5119154;28;20432;-67
2021/03/17 07:54:53;;;;;;;18.77;10.30;;;3.20;99.90;;;;;;5084057;28;20558;-72
2021/03/17 07:57:26;;;;;;;15.80;11.07;;;3.30;99.90;;;;;;5082910;28;20452;-67
2021/03/17 07:59:56;;;;;;;13.10;9.63;;;3.10;99.90;;;;;;5100025;28;20439;-67
2021/03/17 08:02:25;;;;;;;19.87;11.63;;;3.00;99.90;;;;;;5117782;28;20504;-67
2021/03/17 08:04:53;;;;;;;19.43;10.93;;;3.20;99.90;;;;;;5117996;28;20523;-68
2021/03/17 08:07:22;;;;;;;17.10;10.53;;;3.10;99.90;;;;;;5099929;28;20775;-67
2021/03/17 08:09:50;;;;;;;14.80;10.40;;;3.20;99.90;;;;;;5095508;28;20488;-70
2021/03/17 08:12:23;;;;;;;19.60;11.20;;;3.30;99.90;;;;;;5097367;28;20455;-67
2021/03/17 08:14:51;;;;;;;13.10;9.63;;;3.50;99.90;;;;;;5097409;28;20523;-66
2021/03/17 08:17:31;;;;;;;15.20;9.97;;;3.40;99.90;;;;;;5061146;28;20467;-66
2021/03/17 08:20:19;;;;;;;15.27;10.30;;;3.60;99.90;;;;;;5060162;28;20430;-68
2021/03/17 08:22:48;;;;;;;14.40;10.07;;;4.00;99.90;;;;;;5077952;28;20445;-68
2021/03/17 08:25:35;;;;;;;13.50;9.37;;;4.00;99.90;;;;;;5075541;28;20446;-67
2021/03/17 08:28:20;;;;;;;13.83;9.50;;;3.90;99.90;;;;;;5059801;28;20429;-70
2021/03/17 08:30:48;;;;;;;11.83;8.90;;;4.30;99.90;;;;;;5058200;28;20473;-68
2021/03/17 08:33:33;;;;;;;8.97;7.70;;;4.60;99.90;;;;;;5059329;28;20421;-68
2021/03/17 08:36:08;;;;;;;13.67;8.63;;;4.70;99.90;;;;;;5059581;28;20908;-67
2021/03/17 08:38:48;;;;;;;13.77;9.10;;;4.70;99.90;;;;;;5075791;28;20434;-67
2021/03/17 08:41:17;;;;;;;12.07;8.20;;;4.60;99.90;;;;;;5059686;28;20902;-68
2021/03/17 08:43:47;;;;;;;9.97;8.33;;;4.50;99.90;;;;;;5059897;28;20428;-68
2021/03/17 08:46:17;;;;;;;10.63;8.20;;;4.50;99.90;;;;;;5078153;28;20456;-66
2021/03/17 08:49:05;;;;;;;11.60;7.33;;;4.60;99.90;;;;;;5077308;28;20453;-68
2021/03/17 08:52:08;;;;;;;9.73;6.63;;;4.70;99.90;;;;;;5077840;28;21018;-67
2021/03/17 08:55:16;;;;;;;9.70;7.30;;;4.60;99.90;;;;;;5042259;28;20453;-69
2021/03/17 08:57:58;;;;;;;12.03;6.77;;;4.80;99.90;;;;;;5060305;28;20441;-67
2021/03/17 09:00:57;;;;;;;8.23;6.70;;;4.60;99.90;;;;;;5081666;28;20931;-67
2021/03/17 09:03:39;;;;;;;9.33;6.40;;;5.40;99.90;;;;;;5080731;28;20439;-67
2021/03/17 09:06:16;;;;;;;8.87;5.80;;;5.80;99.90;;;;;;5097842;28;20447;-68
2021/03/17 09:08:55;;;;;;;6.67;5.40;;;5.90;99.90;;;;;;5079461;28;20986;-69
2021/03/17 09:11:58;;;;;;;10.13;7.20;;;5.00;99.90;;;;;;5063805;28;20497;-66
2021/03/17 09:14:38;;;;;;;11.00;6.13;;;5.30;99.90;;;;;;5096029;28;20770;-69
2021/03/17 09:17:26;;;;;;;10.87;5.37;;;5.40;99.90;;;;;;5078510;28;20468;-69
2021/03/17 09:20:07;;;;;;;7.50;5.70;;;5.30;99.90;;;;;;5075776;28;20439;-68
2021/03/17 09:22:53;;;;;;;11.80;5.63;;;4.90;99.90;;;;;;5058809;28;20435;-71
2021/03/17 09:25:24;;;;;;;7.13;6.43;;;4.80;99.90;;;;;;5078557;28;20762;-68
2021/03/17 09:28:03;;;;;;;8.20;5.27;;;5.70;99.90;;;;;;5077642;28;20439;-67
2021/03/17 09:30:45;;;;;;;9.63;4.50;;;6.20;99.90;;;;;;5058101;28;20999;-67
2021/03/17 09:33:15;;;;;;;7.20;5.10;;;6.00;99.90;;;;;;5058423;28;20439;-67
2021/03/17 09:35:56;;;;;;;6.53;4.53;;;6.40;99.90;;;;;;5076156;28;20463;-67
2021/03/17 09:38:25;;;;;;;5.57;4.23;;;7.10;99.90;;;;;;5075554;28;20770;-71
2021/03/17 09:40:56;;;;;;;5.90;3.80;;;9.30;99.20;;;;;;5074577;28;20559;-67
2021/03/17 09:43:37;;;;;;;5.80;4.20;;;12.60;91.20;;;;;;5055938;28;20438;-67
2021/03/17 09:46:27;;;;;;;4.13;3.73;;;13.20;78.00;;;;;;5072465;28;20485;-67
2021/03/17 09:48:57;;;;;;;8.10;5.13;;;12.70;81.40;;;;;;5055576;28;20437;-67
2021/03/17 09:51:27;;;;;;;7.53;5.17;;;11.90;84.50;;;;;;5055297;28;20428;-66
2021/03/17 09:53:57;;;;;;;7.00;4.50;;;12.30;83.00;;;;;;5074295;28;20443;-66
2021/03/17 09:56:40;;;;;;;5.80;3.40;;;12.00;78.70;;;;;;5056356;28;20523;-68
2021/03/17 09:59:23;;;;;;;5.17;4.33;;;11.90;77.30;;;;;;5074693;28;20435;-67
2021/03/17 10:01:57;;;;;;;4.90;4.37;;;12.40;74.90;;;;;;5090835;28;20494;-66
2021/03/17 10:04:27;;;;;;;3.50;3.20;;;13.80;73.80;;;;;;5077451;28;20436;-67
2021/03/17 10:06:57;;;;;;;3.97;3.63;;;15.80;64.80;;;;;;5095951;28;20466;-66
2021/03/17 10:09:26;;;;;;;4.07;3.67;;;12.50;64.60;;;;;;5108718;28;20467;-67
2021/03/17 10:12:01;;;;;;;4.03;3.10;;;11.00;71.50;;;;;;5096221;28;20928;-69
2021/03/17 10:14:30;;;;;;;4.83;3.70;;;10.30;75.30;;;;;;5095766;28;20476;-66
2021/03/17 10:17:00;;;;;;;6.00;4.10;;;7.60;84.80;;;;;;5096017;28;20435;-67
2021/03/17 10:19:30;;;;;;;4.47;3.03;;;6.40;91.50;;;;;;5094340;28;20183;-68
2021/03/17 10:21:58;;;;;;;4.10;3.10;;;6.30;95.60;;;;;;5095315;28;20942;-68
2021/03/17 10:24:32;;;;;;;6.30;3.10;;;6.20;97.30;;;;;;5076597;28;20447;-70
2021/03/17 10:27:01;;;;;;;3.83;3.10;;;6.10;96.90;;;;;;5076643;28;20508;-68
2021/03/17 10:29:30;;;;;;;3.83;3.10;;;6.50;96.10;;;;;;5077078;28;20406;-67
2021/03/17 10:31:57;;;;;;;3.17;2.57;;;5.90;96.40;;;;;;5093244;28;20478;-67
2021/03/17 10:34:28;;;;;;;11.57;3.13;;;5.60;96.70;;;;;;5117025;28;20405;-70
2021/03/17 10:36:57;;;;;;;2.83;2.63;;;5.60;98.20;;;;;;5117215;28;20438;-67
2021/03/17 10:39:27;;;;;;;5.07;3.90;;;5.70;97.90;;;;;;5117138;28;20420;-67
2021/03/17 10:41:55;;;;;;;14.30;3.67;;;5.60;98.80;;;;;;5115949;28;20395;-70
2021/03/17 10:44:25;;;;;;;3.73;3.33;;;5.60;99.20;;;;;;5098468;28;20472;-68
2021/03/17 10:47:00;;;;;;;4.47;3.20;;;5.50;99.50;;;;;;5097377;28;20901;-69
2021/03/17 10:49:30;;;;;;;3.13;2.53;;;5.10;99.90;;;;;;5116546;28;20440;-67
2021/03/17 10:52:08;;;;;;;3.07;2.40;;;5.40;99.80;;;;;;5115339;28;20431;-66
2021/03/17 10:55:12;;;;;;;3.30;2.07;;;5.60;99.90;;;;;;5115553;28;20735;-66
2021/03/17 10:57:40;;;;;;;5.17;2.63;;;5.70;99.20;;;;;;5097060;28;20453;-66
2021/03/17 11:00:19;;;;;;;3.67;2.23;;;6.00;98.80;;;;;;5096857;28;20432;-67
2021/03/17 11:02:47;;;;;;;7.87;3.97;;;5.70;98.00;;;;;;5116412;28;20446;-68
2021/03/17 11:05:23;;;;;;;3.47;2.10;;;5.50;98.30;;;;;;5115838;28;20935;-67
2021/03/17 11:07:56;;;;;;;2.33;1.70;;;5.50;97.60;;;;;;5117894;28;20406;-68
2021/03/17 11:10:50;;;;;;;5.33;2.43;;;5.90;97.20;;;;;;5098518;28;20445;-68
2021/03/17 11:13:29;;;;;;;2.30;1.70;;;6.80;94.90;;;;;;5115864;28;20416;-67
2021/03/17 11:16:00;;;;;;;2.67;1.60;;;7.20;92.90;;;;;;5117428;28;20477;-67
2021/03/17 11:18:30;;;;;;;1.60;1.50;;;7.50;92.30;;;;;;5085158;28;20438;-66
2021/03/17 11:21:07;;;;;;;2.70;1.97;;;8.00;90.90;;;;;;5120256;28;20508;-67
2021/03/17 11:23:36;;;;;;;3.10;1.43;;;8.30;89.60;;;;;;5119435;28;20438;-67
2021/03/17 11:26:30;;;;;;;1.43;1.30;;;8.90;84.70;;;;;;5101617;28;20442;-67
2021/03/17 11:28:59;;;;;;;1.77;1.63;;;9.20;82.20;;;;;;5118550;28;20519;-68
2021/03/17 11:31:30;;;;;;;3.43;1.47;;;9.20;80.70;;;;;;5099018;28;20868;-68
2021/03/17 11:33:59;;;;;;;3.23;1.60;;;8.40;79.30;;;;;;5118099;28;20431;-67
2021/03/17 11:36:32;;;;;;;4.53;3.47;;;8.60;80.80;;;;;;5099173;28;20442;-67
2021/03/17 11:39:05;;;;;;;3.40;1.60;;;10.00;76.00;;;;;;5101283;28;20447;-67
2021/03/17 11:41:33;;;;;;;3.13;1.20;;;9.50;75.30;;;;;;5118156;28;20436;-69
2021/03/17 11:44:00;;;;;;;1.50;1.40;;;8.70;76.70;;;;;;5118160;28;20479;-68
2021/03/17 11:46:28;;;;;;;4.17;1.60;;;8.10;80.10;;;;;;5099479;28;20508;-67
2021/03/17 11:48:55;;;;;;;1.63;1.50;;;7.80;84.10;;;;;;5102662;28;20475;-70
2021/03/17 11:51:25;;;;;;;2.60;1.43;;;6.20;87.60;;;;;;5126831;28;20427;-67
2021/03/17 11:53:52;;;;;;;2.37;1.90;;;5.70;91.90;;;;;;5126909;28;20445;-67
2021/03/17 11:56:20;;;;;;;3.00;1.83;;;5.60;93.10;;;;;;5103424;28;20537;-68
2021/03/17 11:58:49;;;;;;;4.80;1.80;;;5.70;93.60;;;;;;5120841;28;20458;-67
2021/03/17 12:01:16;;;;;;;2.70;1.97;;;5.10;94.30;;;;;;5129412;28;20543;-67
2021/03/17 12:03:48;;;;;;;2.50;1.57;;;4.80;96.30;;;;;;5128930;28;20797;-67
2021/03/17 12:06:16;;;;;;;2.50;1.90;;;4.90;97.40;;;;;;5123181;28;20558;-67
2021/03/17 12:08:46;;;;;;;3.30;1.70;;;4.60;97.80;;;;;;5121873;28;20468;-67
2021/03/17 12:11:20;;;;;;;3.30;1.80;;;4.50;97.80;;;;;;5120982;28;20794;-67
2021/03/17 12:13:50;;;;;;;2.40;1.50;;;4.60;98.50;;;;;;5120892;28;20432;-67
2021/03/17 12:16:19;;;;;;;4.87;1.73;;;4.70;98.90;;;;;;5118687;28;20967;-69
2021/03/17 12:18:47;;;;;;;4.90;1.80;;;4.80;99.00;;;;;;5121296;28;20443;-67
2021/03/17 12:21:39;;;;;;;2.27;1.27;;;4.80;99.40;;;;;;5121789;28;20415;-67
2021/03/17 12:24:09;;;;;;;2.17;1.90;;;4.60;99.90;;;;;;5120820;28;20430;-67
2021/03/17 12:26:37;;;;;;;3.10;1.70;;;4.70;99.90;;;;;;5102054;28;20801;-67
2021/03/17 12:29:05;;;;;;;2.17;1.80;;;4.70;99.90;;;;;;5121595;28;20431;-67
2021/03/17 12:31:32;;;;;;;2.17;1.70;;;4.60;99.90;;;;;;5085008;28;20486;-67
2021/03/17 12:34:00;;;;;;;1.90;1.70;;;4.50;99.90;;;;;;5118945;28;20440;-70
2021/03/17 12:36:28;;;;;;;4.13;1.40;;;4.50;99.90;;;;;;5099374;28;20468;-68
2021/03/17 12:38:55;;;;;;;2.07;1.50;;;4.40;99.90;;;;;;5117907;28;20426;-66
2021/03/17 12:41:25;;;;;;;1.80;1.30;;;4.50;99.90;;;;;;5099839;28;20923;-69
2021/03/17 12:43:53;;;;;;;2.43;1.40;;;4.50;99.90;;;;;;5117414;28;20455;-68
2021/03/17 12:46:21;;;;;;;3.13;1.37;;;4.80;99.90;;;;;;5117010;28;20449;-67
2021/03/17 12:48:48;;;;;;;3.70;2.20;;;5.00;99.90;;;;;;5099325;28;20477;-69
2021/03/17 12:51:16;;;;;;;3.73;2.13;;;5.40;99.90;;;;;;5117066;28;20497;-68
2021/03/17 12:53:44;;;;;;;3.93;2.10;;;5.60;98.80;;;;;;5117548;28;20530;-68
2021/03/17 12:56:12;;;;;;;3.63;1.83;;;5.80;98.60;;;;;;5117425;28;20491;-67
2021/03/17 12:58:40;;;;;;;1.97;1.50;;;6.30;97.90;;;;;;5098876;28;20950;-71
2021/03/17 13:01:08;;;;;;;2.60;1.50;;;5.80;97.20;;;;;;5097644;28;20447;-65
2021/03/17 13:03:36;;;;;;;3.40;1.80;;;5.90;97.40;;;;;;5117167;28;20439;-68
2021/03/17 13:06:04;;;;;;;3.47;1.67;;;5.90;97.20;;;;;;5098929;28;20451;-68
2021/03/17 13:08:33;;;;;;;2.40;2.00;;;6.00;97.20;;;;;;5116107;28;21021;-66
2021/03/17 13:11:01;;;;;;;4.47;1.60;;;6.00;96.80;;;;;;5117041;28;20485;-68
2021/03/17 13:13:29;;;;;;;2.17;1.63;;;5.70;97.40;;;;;;5116943;28;20456;-68
2021/03/17 13:15:58;;;;;;;3.70;1.63;;;5.90;97.40;;;;;;5115218;28;20470;-67
2021/03/17 13:18:27;;;;;;;2.20;1.80;;;5.70;97.40;;;;;;5064637;28;20461;-67
2021/03/17 13:21:44;;;;;;;3.27;2.00;;;5.60;97.70;;;;;;5083890;28;20444;-67
2021/03/17 13:24:12;;;;;;;3.37;2.20;;;5.50;97.80;;;;;;5117159;28;20418;-67
2021/03/17 13:26:40;;;;;;;3.07;1.57;;;6.00;97.80;;;;;;5116563;28;20429;-68